Time,TemperatureF,DewpointF,PressureIn,WindDirection,WindDirectionDegrees,WindSpeedMPH,WindSpeedGustMPH,Humidity,HourlyPrecipIn,Conditions,Clouds,dailyrainin,SolarRadiationWatts/m^2,SoftwareType,DateUTC
2017-06-28 00:02:00,63.4,59.8,30.08,NNW,336,0.0,0.0,88,0.00,,,0.00,0,WeatherCatV2.42B15,2017-06-28 04:02:00,
2017-06-28 00:07:00,63.3,59.7,30.08,NNW,336,0.0,0.0,88,0.00,,,0.00,0,WeatherCatV2.42B15,2017-06-28 04:07:00,
2017-06-28 00:12:00,63.0,59.4,30.08,NNW,336,0.0,0.0,88,0.00,,,0.00,0,WeatherCatV2.42B15,2017-06-28 04:12:00,
2017-06-28 00:17:00,62.9,59.3,30.08,NNW,336,1.0,2.0,88,0.00,,,0.00,0,WeatherCatV2.42B15,2017-06-28 04:17:00,
2017-06-28 00:22:00,62.5,58.9,30.08,NNW,336,0.0,0.0,88,0.00,,,0.00,0,WeatherCatV2.42B15,2017-06-28 04:22:00,
2017-06-28 00:27:00,61.9,58.6,30.08,NNW,336,0.0,0.0,89,0.00,,,0.00,0,WeatherCatV2.42B15,2017-06-28 04:27:00,
2017-06-28 00:32:00,61.7,58.7,30.08,NNW,336,0.0,0.0,90,0.00,,,0.00,0,WeatherCatV2.42B15,2017-06-28 04:32:00,
2017-06-28 00:37:00,61.7,58.7,30.08,NNW,336,0.0,0.0,90,0.00,,,0.00,0,WeatherCatV2.42B15,2017-06-28 04:37:00,
2017-06-28 00:42:00,61.3,58.3,30.08,NNW,336,0.0,0.0,90,0.00,,,0.00,0,WeatherCatV2.42B15,2017-06-28 04:42:00,
2017-06-28 00:47:00,61.1,58.5,30.08,NNW,336,0.0,0.0,91,0.00,,,0.00,0,WeatherCatV2.42B15,2017-06-28 04:47:00,
2017-06-28 00:52:00,61.2,58.5,30.08,NNW,336,0.0,0.0,91,0.00,,,0.00,0,WeatherCatV2.42B15,2017-06-28 04:52:00,
2017-06-28 00:57:00,61.1,58.5,30.08,NNW,336,0.0,0.0,91,0.00,,,0.00,0,WeatherCatV2.42B15,2017-06-28 04:57:00,
2017-06-28 01:02:00,60.9,58.2,30.08,NNW,336,0.0,0.0,91,0.00,,,0.00,0,WeatherCatV2.42B15,2017-06-28 05:02:00,
2017-06-28 01:07:00,61.3,58.7,30.08,NNW,336,0.0,0.0,91,0.00,,,0.00,0,WeatherCatV2.42B15,2017-06-28 05:07:00,
2017-06-28 01:12:00,61.5,58.8,30.08,NNW,336,0.0,0.0,91,0.00,,,0.00,0,WeatherCatV2.42B15,2017-06-28 05:12:00,
2017-06-28 01:17:00,61.3,58.7,30.08,NNW,336,0.0,0.0,91,0.00,,,0.00,0,WeatherCatV2.42B15,2017-06-28 05:17:00,
2017-06-28 01:22:00,61.3,58.7,30.08,NNW,336,0.0,0.0,91,0.00,,,0.00,0,WeatherCatV2.42B15,2017-06-28 05:22:00,
2017-06-28 01:27:00,61.2,58.5,30.09,NNW,336,0.0,0.0,91,0.00,,,0.00,0,WeatherCatV2.42B15,2017-06-28 05:27:00,
2017-06-28 01:32:00,61.3,58.7,30.08,NNW,336,0.0,0.0,91,0.00,,,0.00,0,WeatherCatV2.42B15,2017-06-28 05:32:00,
2017-06-28 01:37:00,61.4,58.8,30.09,NNW,336,0.0,0.0,91,0.00,,,0.00,0,WeatherCatV2.42B15,2017-06-28 05:37:00,
2017-06-28 01:42:00,61.2,58.2,30.09,NNW,336,0.0,0.0,90,0.00,,,0.00,0,WeatherCatV2.42B15,2017-06-28 05:42:00,
2017-06-28 01:47:00,60.7,57.8,30.09,NNW,336,0.0,0.0,90,0.00,,,0.00,0,WeatherCatV2.42B15,2017-06-28 05:47:00,
2017-06-28 01:52:00,60.3,57.7,30.09,NNW,336,0.0,0.0,91,0.00,,,0.00,0,WeatherCatV2.42B15,2017-06-28 05:52:00,
2017-06-28 01:57:00,60.1,57.5,30.09,NNW,336,0.0,0.0,91,0.00,,,0.00,0,WeatherCatV2.42B15,2017-06-28 05:57:00,
2017-06-28 02:02:00,59.9,57.3,30.09,NNW,336,0.0,0.0,91,0.00,,,0.00,0,WeatherCatV2.42B15,2017-06-28 06:02:00,
2017-06-28 02:07:00,59.6,57.0,30.09,NNW,336,0.0,0.0,91,0.00,,,0.00,0,WeatherCatV2.42B15,2017-06-28 06:07:00,
2017-06-28 02:12:00,59.5,57.2,30.09,NNW,336,0.0,0.0,92,0.00,,,0.00,0,WeatherCatV2.42B15,2017-06-28 06:12:00,
2017-06-28 02:17:00,59.5,57.2,30.09,NNW,336,0.0,0.0,92,0.00,,,0.00,0,WeatherCatV2.42B15,2017-06-28 06:17:00,
2017-06-28 02:22:00,59.4,57.1,30.09,NNW,336,0.0,0.0,92,0.00,,,0.00,0,WeatherCatV2.42B15,2017-06-28 06:22:00,
2017-06-28 02:27:00,59.2,56.9,30.09,NNW,336,0.0,0.0,92,0.00,,,0.00,0,WeatherCatV2.42B15,2017-06-28 06:27:00,
2017-06-28 02:32:00,59.0,56.7,30.09,NNW,336,0.0,0.0,92,0.00,,,0.00,0,WeatherCatV2.42B15,2017-06-28 06:32:00,
2017-06-28 02:37:00,58.8,56.5,30.09,NNW,336,0.0,0.0,92,0.00,,,0.00,0,WeatherCatV2.42B15,2017-06-28 06:37:00,
2017-06-28 02:42:00,58.9,56.6,30.09,NNW,336,0.0,0.0,92,0.00,,,0.00,0,WeatherCatV2.42B15,2017-06-28 06:42:00,
2017-06-28 02:47:00,58.8,56.5,30.09,NNW,336,0.0,0.0,92,0.00,,,0.00,0,WeatherCatV2.42B15,2017-06-28 06:47:00,
2017-06-28 02:52:00,58.7,56.4,30.09,NNW,336,0.0,0.0,92,0.00,,,0.00,0,WeatherCatV2.42B15,2017-06-28 06:52:00,
2017-06-28 02:57:00,59.0,57.0,30.09,NNW,336,0.0,0.0,93,0.00,,,0.00,0,WeatherCatV2.42B15,2017-06-28 06:57:00,
2017-06-28 03:02:00,58.9,56.6,30.10,NNW,336,0.0,0.0,92,0.00,,,0.00,0,WeatherCatV2.42B15,2017-06-28 07:02:00,
2017-06-28 03:07:00,59.0,56.7,30.10,NNW,336,0.0,0.0,92,0.00,,,0.00,0,WeatherCatV2.42B15,2017-06-28 07:07:00,
2017-06-28 03:12:00,58.8,56.5,30.10,NNW,336,0.0,0.0,92,0.00,,,0.00,0,WeatherCatV2.42B15,2017-06-28 07:12:00,
2017-06-28 03:17:00,58.7,56.7,30.10,NNW,336,0.0,0.0,93,0.00,,,0.00,0,WeatherCatV2.42B15,2017-06-28 07:17:00,
2017-06-28 03:22:00,58.8,56.8,30.10,NNW,336,0.0,1.0,93,0.00,,,0.00,0,WeatherCatV2.42B15,2017-06-28 07:22:00,
2017-06-28 03:27:00,58.8,56.8,30.10,NNW,336,0.0,0.0,93,0.00,,,0.00,0,WeatherCatV2.42B15,2017-06-28 07:27:00,
2017-06-28 03:32:00,58.6,56.3,30.10,NNW,336,0.0,0.0,92,0.00,,,0.00,0,WeatherCatV2.42B15,2017-06-28 07:32:00,
2017-06-28 03:37:00,58.3,56.3,30.10,NNW,336,0.0,0.0,93,0.00,,,0.00,0,WeatherCatV2.42B15,2017-06-28 07:37:00,
2017-06-28 03:42:00,58.2,56.2,30.10,NNW,336,0.0,0.0,93,0.00,,,0.00,0,WeatherCatV2.42B15,2017-06-28 07:42:00,
2017-06-28 03:47:00,58.2,56.2,30.10,NNW,336,0.0,0.0,93,0.00,,,0.00,0,WeatherCatV2.42B15,2017-06-28 07:47:00,
2017-06-28 03:52:00,58.1,56.1,30.10,NNW,336,0.0,1.0,93,0.00,,,0.00,0,WeatherCatV2.42B15,2017-06-28 07:52:00,
2017-06-28 03:57:00,57.9,55.9,30.10,NNW,336,0.0,0.0,93,0.00,,,0.00,0,WeatherCatV2.42B15,2017-06-28 07:57:00,
2017-06-28 04:02:00,57.7,55.7,30.10,NNW,336,0.0,0.0,93,0.00,,,0.00,0,WeatherCatV2.42B15,2017-06-28 08:02:00,
2017-06-28 04:03:00,57.8,55.8,30.10,NNW,336,0.0,0.0,93,0.00,,,0.00,0,WeatherCatV2.42B15,2017-06-28 08:03:00,
2017-06-28 04:08:00,57.6,55.6,30.10,NNW,336,0.0,0.0,93,0.00,,,0.00,0,WeatherCatV2.42B15,2017-06-28 08:08:00,
2017-06-28 04:13:00,57.5,55.5,30.10,NNW,336,0.0,0.0,93,0.00,,,0.00,0,WeatherCatV2.42B15,2017-06-28 08:13:00,
2017-06-28 04:18:00,57.5,55.5,30.10,NNW,336,0.0,0.0,93,0.00,,,0.00,0,WeatherCatV2.42B15,2017-06-28 08:18:00,
2017-06-28 04:23:00,57.6,55.9,30.11,NNW,336,0.0,0.0,94,0.00,,,0.00,0,WeatherCatV2.42B15,2017-06-28 08:23:00,
2017-06-28 04:28:00,57.4,55.7,30.11,NNW,336,0.0,0.0,94,0.00,,,0.00,0,WeatherCatV2.42B15,2017-06-28 08:28:00,
2017-06-28 04:33:00,57.4,55.7,30.11,NNW,336,0.0,0.0,94,0.00,,,0.00,0,WeatherCatV2.42B15,2017-06-28 08:33:00,
2017-06-28 04:38:00,57.4,55.7,30.11,NNW,336,0.0,0.0,94,0.00,,,0.00,0,WeatherCatV2.42B15,2017-06-28 08:38:00,
2017-06-28 04:43:00,57.7,56.0,30.11,NNW,336,0.0,0.0,94,0.00,,,0.00,0,WeatherCatV2.42B15,2017-06-28 08:43:00,
2017-06-28 04:48:00,57.8,56.1,30.11,NNW,336,0.0,0.0,94,0.00,,,0.00,0,WeatherCatV2.42B15,2017-06-28 08:48:00,
2017-06-28 04:53:00,57.5,55.8,30.12,NNW,336,0.0,1.0,94,0.00,,,0.00,0,WeatherCatV2.42B15,2017-06-28 08:53:00,
2017-06-28 04:58:00,57.4,55.7,30.12,NNW,336,0.0,0.0,94,0.00,,,0.00,0,WeatherCatV2.42B15,2017-06-28 08:58:00,
2017-06-28 05:03:00,57.2,55.5,30.12,NNW,336,0.0,0.0,94,0.00,,,0.00,0,WeatherCatV2.42B15,2017-06-28 09:03:00,
2017-06-28 05:08:00,57.0,55.3,30.12,NNW,336,0.0,0.0,94,0.00,,,0.00,0,WeatherCatV2.42B15,2017-06-28 09:08:00,
2017-06-28 05:13:00,56.8,55.1,30.12,NNW,336,0.0,0.0,94,0.00,,,0.00,0,WeatherCatV2.42B15,2017-06-28 09:13:00,
2017-06-28 05:18:00,57.1,55.4,30.12,NNW,336,0.0,0.0,94,0.00,,,0.00,0,WeatherCatV2.42B15,2017-06-28 09:18:00,
2017-06-28 05:23:00,57.4,55.7,30.12,NNW,336,0.0,0.0,94,0.00,,,0.00,0,WeatherCatV2.42B15,2017-06-28 09:23:00,
2017-06-28 05:28:00,57.3,55.6,30.12,NNW,336,0.0,0.0,94,0.00,,,0.00,0,WeatherCatV2.42B15,2017-06-28 09:28:00,
2017-06-28 05:33:00,57.1,55.4,30.13,NNW,336,0.0,0.0,94,0.00,,,0.00,0,WeatherCatV2.42B15,2017-06-28 09:33:00,
2017-06-28 05:38:00,56.9,55.2,30.13,NNW,336,0.0,0.0,94,0.00,,,0.00,0,WeatherCatV2.42B15,2017-06-28 09:38:00,
2017-06-28 05:43:00,56.8,55.1,30.13,NNW,336,0.0,0.0,94,0.00,,,0.00,0,WeatherCatV2.42B15,2017-06-28 09:43:00,
2017-06-28 05:48:00,57.0,55.3,30.13,NNW,336,0.0,0.0,94,0.00,,,0.00,0,WeatherCatV2.42B15,2017-06-28 09:48:00,
2017-06-28 05:53:00,56.7,55.0,30.13,NNW,336,0.0,0.0,94,0.00,,,0.00,0,WeatherCatV2.42B15,2017-06-28 09:53:00,
2017-06-28 05:58:00,56.7,55.0,30.13,NNW,336,0.0,0.0,94,0.00,,,0.00,0,WeatherCatV2.42B15,2017-06-28 09:58:00,
2017-06-28 06:03:00,56.7,55.0,30.13,NNW,336,0.0,0.0,94,0.00,,,0.00,0,WeatherCatV2.42B15,2017-06-28 10:03:00,
2017-06-28 06:08:00,56.8,55.4,30.13,NNW,336,0.0,0.0,95,0.00,,,0.00,7,WeatherCatV2.42B15,2017-06-28 10:08:00,
2017-06-28 06:13:00,57.2,55.8,30.14,NNW,336,0.0,0.0,95,0.00,,,0.00,11,WeatherCatV2.42B15,2017-06-28 10:13:00,
2017-06-28 06:18:00,57.5,55.8,30.14,NNW,336,0.0,0.0,94,0.00,,,0.00,12,WeatherCatV2.42B15,2017-06-28 10:18:00,
2017-06-28 06:23:00,58.2,56.5,30.14,NNW,336,0.0,0.0,94,0.00,,,0.00,16,WeatherCatV2.42B15,2017-06-28 10:23:00,
2017-06-28 06:28:00,58.3,56.3,30.14,NNW,336,0.0,0.0,93,0.00,,,0.00,18,WeatherCatV2.42B15,2017-06-28 10:28:00,
2017-06-28 06:33:00,58.4,56.4,30.14,NNW,336,0.0,0.0,93,0.00,,,0.00,19,WeatherCatV2.42B15,2017-06-28 10:33:00,
2017-06-28 06:38:00,58.3,56.0,30.14,NNW,336,0.0,0.0,92,0.00,,,0.00,23,WeatherCatV2.42B15,2017-06-28 10:38:00,
2017-06-28 06:43:00,58.4,56.1,30.15,NNW,336,0.0,0.0,92,0.00,,,0.00,25,WeatherCatV2.42B15,2017-06-28 10:43:00,
2017-06-28 06:48:00,58.7,56.4,30.15,NNW,336,0.0,0.0,92,0.00,,,0.00,26,WeatherCatV2.42B15,2017-06-28 10:48:00,
2017-06-28 06:53:00,58.5,56.2,30.15,NNW,336,0.0,0.0,92,0.00,,,0.00,93,WeatherCatV2.42B15,2017-06-28 10:53:00,
2017-06-28 06:58:00,59.1,56.8,30.15,NNW,336,0.0,0.0,92,0.00,,,0.00,109,WeatherCatV2.42B15,2017-06-28 10:58:00,
2017-06-28 07:03:00,60.1,57.5,30.15,NNW,336,0.0,0.0,91,0.00,,,0.00,127,WeatherCatV2.42B15,2017-06-28 11:03:00,
2017-06-28 07:09:00,61.6,58.3,30.15,NNW,336,0.0,0.0,89,0.00,,,0.00,146,WeatherCatV2.42B15,2017-06-28 11:09:00,
2017-06-28 07:14:00,62.6,58.3,30.16,NNW,336,0.0,0.0,86,0.00,,,0.00,163,WeatherCatV2.42B15,2017-06-28 11:14:00,
2017-06-28 07:19:00,63.1,58.5,30.16,NNW,336,0.0,0.0,85,0.00,,,0.00,181,WeatherCatV2.42B15,2017-06-28 11:19:00,
2017-06-28 07:24:00,63.6,59.0,30.15,NNW,336,0.0,0.0,85,0.00,,,0.00,199,WeatherCatV2.42B15,2017-06-28 11:24:00,
2017-06-28 07:29:00,64.1,59.2,30.16,North,350,0.0,2.0,84,0.00,,,0.00,216,WeatherCatV2.42B15,2017-06-28 11:29:00,
2017-06-28 07:34:00,64.7,59.1,30.16,NNE,21,2.0,3.0,82,0.00,,,0.00,232,WeatherCatV2.42B15,2017-06-28 11:34:00,
2017-06-28 07:39:00,65.2,59.2,30.16,NE,39,0.0,1.0,81,0.00,,,0.00,250,WeatherCatV2.42B15,2017-06-28 11:39:00,
2017-06-28 07:44:00,65.7,59.7,30.16,NE,39,0.0,0.0,81,0.00,,,0.00,262,WeatherCatV2.42B15,2017-06-28 11:44:00,
2017-06-28 07:49:00,66.1,59.0,30.16,NW,326,0.0,8.0,78,0.00,,,0.00,279,WeatherCatV2.42B15,2017-06-28 11:49:00,
2017-06-28 07:54:00,66.7,59.6,30.16,NNW,336,2.0,9.0,78,0.00,,,0.00,302,WeatherCatV2.42B15,2017-06-28 11:54:00,
2017-06-28 07:59:00,67.2,59.7,30.17,ENE,64,0.0,2.0,77,0.00,,,0.00,320,WeatherCatV2.42B15,2017-06-28 11:59:00,
2017-06-28 08:04:00,67.4,58.8,30.17,NW,316,0.0,6.0,74,0.00,,,0.00,338,WeatherCatV2.42B15,2017-06-28 12:04:00,
2017-06-28 08:09:00,67.9,59.3,30.17,NNE,31,2.0,2.0,74,0.00,,,0.00,355,WeatherCatV2.42B15,2017-06-28 12:09:00,
2017-06-28 08:14:00,68.3,59.3,30.17,NNE,22,1.0,2.0,73,0.00,,,0.00,373,WeatherCatV2.42B15,2017-06-28 12:14:00,
2017-06-28 08:19:00,68.7,59.3,30.17,NE,53,2.0,3.0,72,0.00,,,0.00,385,WeatherCatV2.42B15,2017-06-28 12:19:00,
2017-06-28 08:24:00,69.1,58.9,30.17,NNE,30,2.0,9.0,70,0.00,,,0.00,403,WeatherCatV2.42B15,2017-06-28 12:24:00,
2017-06-28 08:29:00,69.5,58.9,30.17,SE,127,0.0,3.0,69,0.00,,,0.00,420,WeatherCatV2.42B15,2017-06-28 12:29:00,
2017-06-28 08:34:00,69.8,59.6,30.17,East,94,0.0,0.0,70,0.00,,,0.00,438,WeatherCatV2.42B15,2017-06-28 12:34:00,
2017-06-28 08:39:00,70.3,60.8,30.18,East,88,1.0,7.0,72,0.00,,,0.00,455,WeatherCatV2.42B15,2017-06-28 12:39:00,
2017-06-28 08:44:00,70.8,59.7,30.18,ENE,63,0.0,0.0,68,0.00,,,0.00,471,WeatherCatV2.42B15,2017-06-28 12:44:00,
2017-06-28 08:49:00,71.1,59.2,30.18,East,95,6.0,6.0,66,0.00,,,0.00,489,WeatherCatV2.42B15,2017-06-28 12:49:00,
2017-06-28 08:50:00,71.2,59.7,30.18,ENE,76,7.0,7.0,67,0.00,,,0.00,494,WeatherCatV2.42B15,2017-06-28 12:50:00,
2017-06-28 08:55:00,71.3,58.9,30.17,NE,52,1.0,8.0,65,0.00,,,0.00,510,WeatherCatV2.42B15,2017-06-28 12:55:00,
2017-06-28 09:00:00,71.6,60.0,30.17,ENE,77,1.0,7.0,67,0.00,,,0.00,527,WeatherCatV2.42B15,2017-06-28 13:00:00,
2017-06-28 09:05:00,72.1,59.2,30.17,NE,42,0.0,5.0,64,0.00,,,0.00,541,WeatherCatV2.42B15,2017-06-28 13:05:00,
2017-06-28 09:10:00,72.7,60.2,30.17,ENE,74,0.0,5.0,65,0.00,,,0.00,555,WeatherCatV2.42B15,2017-06-28 13:10:00,
2017-06-28 09:15:00,72.9,60.4,30.17,ENE,67,1.0,4.0,65,0.00,,,0.00,571,WeatherCatV2.42B15,2017-06-28 13:15:00,
2017-06-28 09:20:00,73.4,59.6,30.18,NE,55,3.0,4.0,62,0.00,,,0.00,589,WeatherCatV2.42B15,2017-06-28 13:20:00,
2017-06-28 09:25:00,73.6,58.8,30.18,ENE,69,3.0,6.0,60,0.00,,,0.00,606,WeatherCatV2.42B15,2017-06-28 13:25:00,
2017-06-28 09:30:00,74.0,60.1,30.18,North,0,0.0,2.0,62,0.00,,,0.00,619,WeatherCatV2.42B15,2017-06-28 13:30:00,
2017-06-28 09:35:00,74.0,58.3,30.18,East,83,2.0,6.0,58,0.00,,,0.00,636,WeatherCatV2.42B15,2017-06-28 13:35:00,
2017-06-28 09:40:00,74.4,59.6,30.18,East,84,2.0,4.0,60,0.00,,,0.00,652,WeatherCatV2.42B15,2017-06-28 13:40:00,
2017-06-28 09:45:00,74.8,60.4,30.18,ESE,103,0.0,2.0,61,0.00,,,0.00,664,WeatherCatV2.42B15,2017-06-28 13:45:00,
2017-06-28 09:50:00,75.4,61.0,30.18,ENE,69,3.0,8.0,61,0.00,,,0.00,679,WeatherCatV2.42B15,2017-06-28 13:50:00,
2017-06-28 09:55:00,75.3,59.0,30.18,ENE,59,6.0,8.0,57,0.00,,,0.00,693,WeatherCatV2.42B15,2017-06-28 13:55:00,
2017-06-28 10:00:00,75.3,60.4,30.18,NE,53,2.0,6.0,60,0.00,,,0.00,707,WeatherCatV2.42B15,2017-06-28 14:00:00,
2017-06-28 10:05:00,75.7,58.9,30.18,ENE,63,3.0,9.0,56,0.00,,,0.00,722,WeatherCatV2.42B15,2017-06-28 14:05:00,
2017-06-28 10:10:00,75.3,60.4,30.18,East,87,1.0,7.0,60,0.00,,,0.00,735,WeatherCatV2.42B15,2017-06-28 14:10:00,
2017-06-28 10:15:00,75.5,59.7,30.18,East,81,7.0,7.0,58,0.00,,,0.00,747,WeatherCatV2.42B15,2017-06-28 14:15:00,
2017-06-28 10:20:00,75.5,60.6,30.18,ENE,71,6.0,9.0,60,0.00,,,0.00,761,WeatherCatV2.42B15,2017-06-28 14:20:00,
2017-06-28 10:25:00,75.9,60.0,30.18,ENE,78,1.0,3.0,58,0.00,,,0.00,772,WeatherCatV2.42B15,2017-06-28 14:25:00,
2017-06-28 10:30:00,76.5,60.6,30.18,ENE,69,1.0,2.0,58,0.00,,,0.00,786,WeatherCatV2.42B15,2017-06-28 14:30:00,
2017-06-28 10:35:00,76.7,61.3,30.18,ENE,57,0.0,5.0,59,0.00,,,0.00,796,WeatherCatV2.42B15,2017-06-28 14:35:00,
2017-06-28 10:40:00,76.7,61.8,30.18,East,96,6.0,7.0,60,0.00,,,0.00,810,WeatherCatV2.42B15,2017-06-28 14:40:00,
2017-06-28 10:45:00,76.7,60.3,30.19,NE,50,1.0,3.0,57,0.00,,,0.00,821,WeatherCatV2.42B15,2017-06-28 14:45:00,
2017-06-28 10:50:00,77.2,64.1,30.19,ENE,65,4.0,4.0,64,0.00,,,0.00,830,WeatherCatV2.42B15,2017-06-28 14:50:00,
2017-06-28 10:55:00,77.7,60.2,30.19,East,100,2.0,6.0,55,0.00,,,0.00,840,WeatherCatV2.42B15,2017-06-28 14:55:00,
2017-06-28 10:56:00,77.7,60.2,30.19,East,101,2.0,6.0,55,0.00,,,0.00,840,WeatherCatV2.42B15,2017-06-28 14:56:00,
2017-06-28 11:01:00,77.7,62.7,30.19,NNE,26,0.0,2.0,60,0.00,,,0.00,853,WeatherCatV2.42B15,2017-06-28 15:01:00,
2017-06-28 11:06:00,77.8,60.8,30.19,NE,42,1.0,6.0,56,0.00,,,0.00,863,WeatherCatV2.42B15,2017-06-28 15:06:00,
2017-06-28 11:11:00,77.6,60.1,30.19,East,97,2.0,5.0,55,0.00,,,0.00,872,WeatherCatV2.42B15,2017-06-28 15:11:00,
2017-06-28 11:16:00,78.5,64.8,30.19,ESE,117,1.0,6.0,63,0.00,,,0.00,879,WeatherCatV2.42B15,2017-06-28 15:16:00,
2017-06-28 11:21:00,78.4,60.9,30.19,NE,40,0.0,1.0,55,0.00,,,0.00,893,WeatherCatV2.42B15,2017-06-28 15:21:00,
2017-06-28 11:26:00,78.7,61.2,30.19,ENE,69,1.0,5.0,55,0.00,,,0.00,902,WeatherCatV2.42B15,2017-06-28 15:26:00,
2017-06-28 11:31:00,78.3,58.7,30.19,ESE,119,4.0,8.0,51,0.00,,,0.00,909,WeatherCatV2.42B15,2017-06-28 15:31:00,
2017-06-28 11:36:00,78.7,60.1,30.19,ENE,67,3.0,7.0,53,0.00,,,0.00,914,WeatherCatV2.42B15,2017-06-28 15:36:00,
2017-06-28 11:41:00,78.7,59.6,30.19,East,82,0.0,1.0,52,0.00,,,0.00,921,WeatherCatV2.42B15,2017-06-28 15:41:00,
2017-06-28 11:46:00,78.6,61.6,30.20,East,98,2.0,4.0,56,0.00,,,0.00,925,WeatherCatV2.42B15,2017-06-28 15:46:00,
2017-06-28 11:51:00,79.4,62.3,30.20,East,96,0.0,6.0,56,0.00,,,0.00,933,WeatherCatV2.42B15,2017-06-28 15:51:00,
2017-06-28 11:56:00,79.8,60.0,30.20,NNE,26,0.0,3.0,51,0.00,,,0.00,944,WeatherCatV2.42B15,2017-06-28 15:56:00,
2017-06-28 12:01:00,80.3,62.1,30.20,NNE,32,1.0,3.0,54,0.00,,,0.00,947,WeatherCatV2.42B15,2017-06-28 16:01:00,
2017-06-28 12:06:00,79.0,62.9,30.20,SSE,161,0.0,1.0,58,0.00,,,0.00,949,WeatherCatV2.42B15,2017-06-28 16:06:00,
2017-06-28 12:11:00,79.5,59.8,30.20,North,355,2.0,4.0,51,0.00,,,0.00,956,WeatherCatV2.42B15,2017-06-28 16:11:00,
2017-06-28 12:16:00,80.2,61.0,30.20,NNW,344,2.0,8.0,52,0.00,,,0.00,963,WeatherCatV2.42B15,2017-06-28 16:16:00,
2017-06-28 12:21:00,80.6,60.8,30.19,NNE,33,2.0,3.0,51,0.00,,,0.00,967,WeatherCatV2.42B15,2017-06-28 16:21:00,
2017-06-28 12:26:00,80.2,59.3,30.19,East,94,6.0,12.0,49,0.00,,,0.00,970,WeatherCatV2.42B15,2017-06-28 16:26:00,
2017-06-28 12:31:00,79.8,57.2,30.19,ENE,71,8.0,8.0,46,0.00,,,0.00,977,WeatherCatV2.42B15,2017-06-28 16:31:00,
2017-06-28 12:36:00,79.9,57.8,30.19,North,0,0.0,5.0,47,0.00,,,0.00,984,WeatherCatV2.42B15,2017-06-28 16:36:00,
2017-06-28 12:41:00,79.6,57.0,30.19,SSW,193,1.0,3.0,46,0.00,,,0.00,983,WeatherCatV2.42B15,2017-06-28 16:41:00,
2017-06-28 12:46:00,80.2,59.3,30.19,NNW,333,0.0,4.0,49,0.00,,,0.00,983,WeatherCatV2.42B15,2017-06-28 16:46:00,
2017-06-28 12:51:00,80.3,57.6,30.19,NNW,334,2.0,5.0,46,0.00,,,0.00,990,WeatherCatV2.42B15,2017-06-28 16:51:00,
2017-06-28 12:56:00,80.6,57.3,30.19,East,90,7.0,9.0,45,0.00,,,0.00,990,WeatherCatV2.42B15,2017-06-28 16:56:00,
2017-06-28 13:01:00,80.2,59.3,30.19,SE,125,2.0,2.0,49,0.00,,,0.00,988,WeatherCatV2.42B15,2017-06-28 17:01:00,
2017-06-28 13:06:00,80.3,57.6,30.18,ENE,60,1.0,3.0,46,0.00,,,0.00,990,WeatherCatV2.42B15,2017-06-28 17:06:00,
2017-06-28 13:11:00,80.9,59.3,30.18,NNW,337,4.0,6.0,48,0.00,,,0.00,997,WeatherCatV2.42B15,2017-06-28 17:11:00,
2017-06-28 13:16:00,80.6,58.5,30.18,ENE,66,0.0,0.0,47,0.00,,,0.00,991,WeatherCatV2.42B15,2017-06-28 17:16:00,
2017-06-28 13:21:00,81.2,57.2,30.18,East,81,5.0,10.0,44,0.00,,,0.00,1000,WeatherCatV2.42B15,2017-06-28 17:21:00,
2017-06-28 13:26:00,81.3,54.0,30.18,NNE,19,2.0,4.0,39,0.00,,,0.00,988,WeatherCatV2.42B15,2017-06-28 17:26:00,
2017-06-28 13:31:00,81.8,57.1,30.18,ENE,76,2.0,6.0,43,0.00,,,0.00,998,WeatherCatV2.42B15,2017-06-28 17:31:00,
2017-06-28 13:36:00,82.3,61.2,30.18,ENE,70,0.0,1.0,49,0.00,,,0.00,1002,WeatherCatV2.42B15,2017-06-28 17:36:00,
2017-06-28 13:41:00,82.0,50.8,30.18,NE,53,2.0,2.0,34,0.00,,,0.00,1000,WeatherCatV2.42B15,2017-06-28 17:41:00,
2017-06-28 13:46:00,81.3,55.3,30.18,ESE,110,4.0,4.0,41,0.00,,,0.00,997,WeatherCatV2.42B15,2017-06-28 17:46:00,
2017-06-28 13:51:00,81.2,57.2,30.17,ESE,113,3.0,4.0,44,0.00,,,0.00,991,WeatherCatV2.42B15,2017-06-28 17:51:00,
2017-06-28 13:56:00,81.1,52.3,30.18,East,89,1.0,3.0,37,0.00,,,0.00,986,WeatherCatV2.42B15,2017-06-28 17:56:00,
2017-06-28 14:01:00,81.6,54.9,30.18,NE,35,0.0,1.0,40,0.00,,,0.00,981,WeatherCatV2.42B15,2017-06-28 18:01:00,
2017-06-28 14:06:00,81.8,54.4,30.18,ENE,71,2.0,3.0,39,0.00,,,0.00,981,WeatherCatV2.42B15,2017-06-28 18:06:00,
2017-06-28 14:11:00,81.6,54.9,30.18,ESE,117,2.0,7.0,40,0.00,,,0.00,976,WeatherCatV2.42B15,2017-06-28 18:11:00,
2017-06-28 14:16:00,82.1,58.0,30.18,NNE,14,2.0,3.0,44,0.00,,,0.00,967,WeatherCatV2.42B15,2017-06-28 18:16:00,
2017-06-28 14:21:00,82.3,58.8,30.17,West,277,7.0,7.0,45,0.00,,,0.00,965,WeatherCatV2.42B15,2017-06-28 18:21:00,
2017-06-28 14:26:00,81.7,57.0,30.17,WNW,292,3.0,4.0,43,0.00,,,0.00,960,WeatherCatV2.42B15,2017-06-28 18:26:00,
2017-06-28 14:31:00,81.2,53.9,30.17,WNW,289,2.0,4.0,39,0.00,,,0.00,953,WeatherCatV2.42B15,2017-06-28 18:31:00,
2017-06-28 14:36:00,81.7,56.3,30.18,ENE,63,2.0,5.0,42,0.00,,,0.00,942,WeatherCatV2.42B15,2017-06-28 18:36:00,
2017-06-28 14:41:00,82.1,57.4,30.18,NNW,340,2.0,4.0,43,0.00,,,0.00,939,WeatherCatV2.42B15,2017-06-28 18:41:00,
2017-06-28 14:46:00,82.4,58.3,30.17,North,0,1.0,4.0,44,0.00,,,0.00,932,WeatherCatV2.42B15,2017-06-28 18:46:00,
2017-06-28 14:51:00,82.3,54.1,30.17,North,5,2.0,3.0,38,0.00,,,0.00,925,WeatherCatV2.42B15,2017-06-28 18:51:00,
2017-06-28 14:56:00,82.0,56.0,30.17,West,280,0.0,1.0,41,0.00,,,0.00,918,WeatherCatV2.42B15,2017-06-28 18:56:00,
2017-06-28 14:57:00,81.9,53.0,30.17,West,280,0.0,0.0,37,0.00,,,0.00,916,WeatherCatV2.42B15,2017-06-28 18:57:00,
2017-06-28 15:02:00,82.5,56.4,30.17,North,355,5.0,7.0,41,0.00,,,0.00,911,WeatherCatV2.42B15,2017-06-28 19:02:00,
2017-06-28 15:07:00,83.0,56.2,30.17,North,350,2.0,3.0,40,0.00,,,0.00,902,WeatherCatV2.42B15,2017-06-28 19:07:00,
2017-06-28 15:12:00,82.3,56.9,30.17,East,89,4.0,6.0,42,0.00,,,0.00,898,WeatherCatV2.42B15,2017-06-28 19:12:00,
2017-06-28 15:17:00,82.0,53.9,30.17,NNE,20,0.0,3.0,38,0.00,,,0.00,877,WeatherCatV2.42B15,2017-06-28 19:17:00,
2017-06-28 15:22:00,82.3,53.4,30.17,NNE,17,1.0,3.0,37,0.00,,,0.00,872,WeatherCatV2.42B15,2017-06-28 19:22:00,
2017-06-28 15:27:00,82.1,55.3,30.17,NNW,332,2.0,2.0,40,0.00,,,0.00,872,WeatherCatV2.42B15,2017-06-28 19:27:00,
2017-06-28 15:32:00,82.5,54.3,30.17,ENE,67,3.0,4.0,38,0.00,,,0.00,860,WeatherCatV2.42B15,2017-06-28 19:32:00,
2017-06-28 15:37:00,82.2,56.8,30.17,East,98,4.0,7.0,42,0.00,,,0.00,830,WeatherCatV2.42B15,2017-06-28 19:37:00,
2017-06-28 15:42:00,81.8,55.8,30.17,ESE,119,4.0,7.0,41,0.00,,,0.00,835,WeatherCatV2.42B15,2017-06-28 19:42:00,
2017-06-28 15:47:00,82.5,59.0,30.16,ESE,102,4.0,9.0,45,0.00,,,0.00,789,WeatherCatV2.42B15,2017-06-28 19:47:00,
2017-06-28 15:52:00,82.5,57.1,30.16,NE,55,3.0,7.0,42,0.00,,,0.00,807,WeatherCatV2.42B15,2017-06-28 19:52:00,
2017-06-28 15:57:00,82.7,60.4,30.16,ENE,57,0.0,3.0,47,0.00,,,0.00,798,WeatherCatV2.42B15,2017-06-28 19:57:00,
2017-06-28 16:02:00,82.5,55.7,30.16,NE,51,0.0,3.0,40,0.00,,,0.00,793,WeatherCatV2.42B15,2017-06-28 20:02:00,
2017-06-28 16:07:00,82.6,56.5,30.16,North,355,2.0,2.0,41,0.00,,,0.00,780,WeatherCatV2.42B15,2017-06-28 20:07:00,
2017-06-28 16:12:00,82.5,57.1,30.16,NNW,332,0.0,0.0,42,0.00,,,0.00,768,WeatherCatV2.42B15,2017-06-28 20:12:00,
2017-06-28 16:17:00,83.1,58.3,30.16,ENE,65,1.0,2.0,43,0.00,,,0.00,754,WeatherCatV2.42B15,2017-06-28 20:17:00,
2017-06-28 16:22:00,83.2,56.3,30.15,ENE,63,0.0,3.0,40,0.00,,,0.00,740,WeatherCatV2.42B15,2017-06-28 20:22:00,
2017-06-28 16:27:00,83.6,60.0,30.15,North,355,1.0,3.0,45,0.00,,,0.00,726,WeatherCatV2.42B15,2017-06-28 20:27:00,
2017-06-28 16:32:00,83.1,54.8,30.15,NNE,17,0.0,3.0,38,0.00,,,0.00,707,WeatherCatV2.42B15,2017-06-28 20:32:00,
2017-06-28 16:37:00,83.0,54.0,30.15,NNE,15,0.0,1.0,37,0.00,,,0.00,700,WeatherCatV2.42B15,2017-06-28 20:37:00,
2017-06-28 16:42:00,83.1,54.8,30.15,NW,325,3.0,5.0,38,0.00,,,0.00,687,WeatherCatV2.42B15,2017-06-28 20:42:00,
2017-06-28 16:47:00,82.6,57.2,30.15,NW,304,3.0,4.0,42,0.00,,,0.00,671,WeatherCatV2.42B15,2017-06-28 20:47:00,
2017-06-28 16:52:00,82.8,57.3,30.15,NW,319,0.0,3.0,42,0.00,,,0.00,657,WeatherCatV2.42B15,2017-06-28 20:52:00,
2017-06-28 16:57:00,83.0,56.2,30.15,ENE,61,4.0,5.0,40,0.00,,,0.00,640,WeatherCatV2.42B15,2017-06-28 20:57:00,
2017-06-28 17:02:00,83.2,57.7,30.15,NNE,33,2.0,2.0,42,0.00,,,0.00,626,WeatherCatV2.42B15,2017-06-28 21:02:00,
2017-06-28 17:07:00,82.8,53.8,30.15,NNE,17,0.0,0.0,37,0.00,,,0.00,613,WeatherCatV2.42B15,2017-06-28 21:07:00,
2017-06-28 17:12:00,82.6,54.4,30.15,East,80,2.0,6.0,38,0.00,,,0.00,603,WeatherCatV2.42B15,2017-06-28 21:12:00,
2017-06-28 17:17:00,82.8,59.3,30.15,ESE,106,2.0,4.0,45,0.00,,,0.00,582,WeatherCatV2.42B15,2017-06-28 21:17:00,
2017-06-28 17:22:00,82.1,56.0,30.15,East,97,1.0,2.0,41,0.00,,,0.00,566,WeatherCatV2.42B15,2017-06-28 21:22:00,
2017-06-28 17:27:00,81.6,57.5,30.14,SE,135,2.0,3.0,44,0.00,,,0.00,550,WeatherCatV2.42B15,2017-06-28 21:27:00,
2017-06-28 17:32:00,80.3,58.8,30.14,SE,135,0.0,0.0,48,0.00,,,0.00,533,WeatherCatV2.42B15,2017-06-28 21:32:00,
2017-06-28 17:37:00,81.8,59.6,30.14,East,89,1.0,3.0,47,0.00,,,0.00,519,WeatherCatV2.42B15,2017-06-28 21:37:00,
2017-06-28 17:42:00,82.5,56.4,30.14,ENE,67,2.0,4.0,41,0.00,,,0.00,499,WeatherCatV2.42B15,2017-06-28 21:42:00,
2017-06-28 17:47:00,82.8,56.0,30.14,ENE,69,0.0,1.0,40,0.00,,,0.00,485,WeatherCatV2.42B15,2017-06-28 21:47:00,
2017-06-28 17:52:00,82.2,61.1,30.14,NNE,13,3.0,3.0,49,0.00,,,0.00,466,WeatherCatV2.42B15,2017-06-28 21:52:00,
2017-06-28 17:57:00,81.0,58.2,30.14,NNW,341,2.0,3.0,46,0.00,,,0.00,452,WeatherCatV2.42B15,2017-06-28 21:57:00,
2017-06-28 18:02:00,80.3,57.6,30.14,NNW,340,0.0,2.0,46,0.00,,,0.00,432,WeatherCatV2.42B15,2017-06-28 22:02:00,
2017-06-28 18:07:00,79.3,59.6,30.14,NNW,340,0.0,0.0,51,0.00,,,0.00,415,WeatherCatV2.42B15,2017-06-28 22:07:00,
2017-06-28 18:12:00,79.3,59.6,30.15,NNW,340,0.0,0.0,51,0.00,,,0.00,396,WeatherCatV2.42B15,2017-06-28 22:12:00,
2017-06-28 18:17:00,80.1,60.3,30.15,NE,46,0.0,2.0,51,0.00,,,0.00,380,WeatherCatV2.42B15,2017-06-28 22:17:00,
2017-06-28 18:22:00,79.5,56.9,30.14,East,86,3.0,3.0,46,0.00,,,0.00,360,WeatherCatV2.42B15,2017-06-28 22:22:00,
2017-06-28 18:27:00,79.8,60.0,30.15,SE,138,0.0,2.0,51,0.00,,,0.00,346,WeatherCatV2.42B15,2017-06-28 22:27:00,
2017-06-28 18:32:00,79.7,57.7,30.15,ESE,105,2.0,3.0,47,0.00,,,0.00,325,WeatherCatV2.42B15,2017-06-28 22:32:00,
2017-06-28 18:37:00,80.6,61.9,30.15,ESE,103,0.0,0.0,53,0.00,,,0.00,311,WeatherCatV2.42B15,2017-06-28 22:37:00,
2017-06-28 18:42:00,78.9,60.8,30.15,ESE,103,0.0,0.0,54,0.00,,,0.00,294,WeatherCatV2.42B15,2017-06-28 22:42:00,
2017-06-28 18:47:00,78.7,60.6,30.15,ESE,107,0.0,0.0,54,0.00,,,0.00,276,WeatherCatV2.42B15,2017-06-28 22:47:00,
2017-06-28 18:52:00,78.0,60.5,30.15,ESE,107,0.0,0.0,55,0.00,,,0.00,260,WeatherCatV2.42B15,2017-06-28 22:52:00,
2017-06-28 18:57:00,77.8,61.3,30.15,ESE,107,0.0,0.0,57,0.00,,,0.00,243,WeatherCatV2.42B15,2017-06-28 22:57:00,
2017-06-28 19:02:00,78.0,61.5,30.16,ESE,107,0.0,0.0,57,0.00,,,0.00,229,WeatherCatV2.42B15,2017-06-28 23:02:00,
2017-06-28 19:07:00,78.3,59.7,30.16,ESE,107,0.0,3.0,53,0.00,,,0.00,211,WeatherCatV2.42B15,2017-06-28 23:07:00,
2017-06-28 19:12:00,77.7,60.7,30.16,ESE,107,0.0,0.0,56,0.00,,,0.00,156,WeatherCatV2.42B15,2017-06-28 23:12:00,
2017-06-28 19:17:00,77.4,60.5,30.16,ESE,107,0.0,0.0,56,0.00,,,0.00,169,WeatherCatV2.42B15,2017-06-28 23:17:00,
2017-06-28 19:22:00,77.1,60.2,30.16,ESE,107,0.0,0.0,56,0.00,,,0.00,149,WeatherCatV2.42B15,2017-06-28 23:22:00,
2017-06-28 19:27:00,76.9,61.5,30.16,ESE,107,0.0,0.0,59,0.00,,,0.00,130,WeatherCatV2.42B15,2017-06-28 23:27:00,
2017-06-28 19:32:00,76.7,61.3,30.16,ESE,107,0.0,0.0,59,0.00,,,0.00,111,WeatherCatV2.42B15,2017-06-28 23:32:00,
2017-06-28 19:37:00,76.1,60.7,30.16,ESE,107,0.0,0.0,59,0.00,,,0.00,95,WeatherCatV2.42B15,2017-06-28 23:37:00,
2017-06-28 19:42:00,75.8,60.9,30.16,ESE,107,0.0,0.0,60,0.00,,,0.00,77,WeatherCatV2.42B15,2017-06-28 23:42:00,
2017-06-28 19:47:00,75.6,60.2,30.16,ESE,107,0.0,0.0,59,0.00,,,0.00,63,WeatherCatV2.42B15,2017-06-28 23:47:00,
2017-06-28 19:52:00,75.2,61.7,30.16,ESE,107,0.0,0.0,63,0.00,,,0.00,32,WeatherCatV2.42B15,2017-06-28 23:52:00,
2017-06-28 19:57:00,74.5,61.1,30.16,ESE,107,0.0,0.0,63,0.00,,,0.00,30,WeatherCatV2.42B15,2017-06-28 23:57:00,
2017-06-28 20:02:00,74.1,62.4,30.16,ESE,107,0.0,0.0,67,0.00,,,0.00,30,WeatherCatV2.42B15,2017-06-29 00:02:00,
2017-06-28 20:07:00,73.5,62.3,30.16,ESE,107,0.0,1.0,68,0.00,,,0.00,19,WeatherCatV2.42B15,2017-06-29 00:07:00,
2017-06-28 20:12:00,73.0,61.8,30.16,ESE,107,0.0,0.0,68,0.00,,,0.00,16,WeatherCatV2.42B15,2017-06-29 00:12:00,
2017-06-28 20:17:00,72.6,62.2,30.16,ESE,107,0.0,0.0,70,0.00,,,0.00,11,WeatherCatV2.42B15,2017-06-29 00:17:00,
2017-06-28 20:18:00,72.6,62.2,30.16,ESE,107,0.0,0.0,70,0.00,,,0.00,9,WeatherCatV2.42B15,2017-06-29 00:18:00,
2017-06-28 20:23:00,72.1,61.3,30.16,ESE,107,0.0,0.0,69,0.00,,,0.00,7,WeatherCatV2.42B15,2017-06-29 00:23:00,
2017-06-28 20:28:00,71.7,62.2,30.16,ESE,107,0.0,0.0,72,0.00,,,0.00,0,WeatherCatV2.42B15,2017-06-29 00:28:00,
2017-06-28 20:38:00,70.6,60.7,30.16,ESE,107,0.0,0.0,71,0.00,,,0.00,0,WeatherCatV2.42B15,2017-06-29 00:38:00,
2017-06-28 20:43:00,70.1,60.6,30.16,ESE,107,0.0,0.0,72,0.00,,,0.00,0,WeatherCatV2.42B15,2017-06-29 00:43:00,
2017-06-28 20:48:00,69.6,60.5,30.16,ESE,107,0.0,0.0,73,0.00,,,0.00,0,WeatherCatV2.42B15,2017-06-29 00:48:00,
2017-06-28 20:53:00,69.3,60.3,30.16,ESE,107,0.0,0.0,73,0.00,,,0.00,0,WeatherCatV2.42B15,2017-06-29 00:53:00,
2017-06-28 20:58:00,69.0,60.4,30.16,ESE,107,0.0,0.0,74,0.00,,,0.00,0,WeatherCatV2.42B15,2017-06-29 00:58:00,
2017-06-28 21:03:00,68.8,60.5,30.16,ESE,107,0.0,0.0,75,0.00,,,0.00,0,WeatherCatV2.42B15,2017-06-29 01:03:00,
2017-06-28 21:08:00,68.5,60.2,30.16,ESE,107,0.0,0.0,75,0.00,,,0.00,0,WeatherCatV2.42B15,2017-06-29 01:08:00,
2017-06-28 21:13:00,68.1,59.9,30.16,ESE,107,0.0,0.0,75,0.00,,,0.00,0,WeatherCatV2.42B15,2017-06-29 01:13:00,
2017-06-28 21:18:00,67.9,59.7,30.16,ESE,107,0.0,0.0,75,0.00,,,0.00,0,WeatherCatV2.42B15,2017-06-29 01:18:00,
2017-06-28 21:23:00,67.9,60.0,30.16,ESE,107,0.0,0.0,76,0.00,,,0.00,0,WeatherCatV2.42B15,2017-06-29 01:23:00,
2017-06-28 21:28:00,67.6,59.8,30.16,ESE,107,0.0,0.0,76,0.00,,,0.00,0,WeatherCatV2.42B15,2017-06-29 01:28:00,
2017-06-28 21:33:00,67.5,60.0,30.17,ESE,107,0.0,0.0,77,0.00,,,0.00,0,WeatherCatV2.42B15,2017-06-29 01:33:00,
2017-06-28 21:38:00,67.1,60.4,30.17,ESE,107,0.0,0.0,79,0.00,,,0.00,0,WeatherCatV2.42B15,2017-06-29 01:38:00,
2017-06-28 21:43:00,66.8,60.4,30.17,ESE,107,0.0,0.0,80,0.00,,,0.00,0,WeatherCatV2.42B15,2017-06-29 01:43:00,
2017-06-28 21:48:00,66.8,60.8,30.17,ESE,107,0.0,0.0,81,0.00,,,0.00,0,WeatherCatV2.42B15,2017-06-29 01:48:00,
2017-06-28 21:53:00,66.7,60.7,30.17,ESE,107,0.0,0.0,81,0.00,,,0.00,0,WeatherCatV2.42B15,2017-06-29 01:53:00,
2017-06-28 21:58:00,66.7,61.4,30.17,ESE,107,0.0,0.0,83,0.00,,,0.00,0,WeatherCatV2.42B15,2017-06-29 01:58:00,
2017-06-28 22:03:00,66.7,61.0,30.17,ESE,107,0.0,0.0,82,0.00,,,0.00,0,WeatherCatV2.42B15,2017-06-29 02:03:00,
2017-06-28 22:08:00,66.7,61.7,30.17,ESE,107,0.0,0.0,84,0.00,,,0.00,0,WeatherCatV2.42B15,2017-06-29 02:08:00,
2017-06-28 22:13:00,66.4,61.1,30.18,ESE,107,0.0,0.0,83,0.00,,,0.00,0,WeatherCatV2.42B15,2017-06-29 02:13:00,
2017-06-28 22:18:00,66.0,61.3,30.18,ESE,107,0.0,0.0,85,0.00,,,0.00,0,WeatherCatV2.42B15,2017-06-29 02:18:00,
2017-06-28 22:23:00,65.6,61.0,30.17,ESE,107,0.0,0.0,85,0.00,,,0.00,0,WeatherCatV2.42B15,2017-06-29 02:23:00,
2017-06-28 22:33:00,65.4,61.1,30.18,ESE,107,0.0,0.0,86,0.00,,,0.00,0,WeatherCatV2.42B15,2017-06-29 02:33:00,
2017-06-28 22:38:00,65.2,60.9,30.18,ESE,107,0.0,0.0,86,0.00,,,0.00,0,WeatherCatV2.42B15,2017-06-29 02:38:00,
2017-06-28 22:43:00,65.0,61.0,30.18,ESE,107,0.0,0.0,87,0.00,,,0.00,0,WeatherCatV2.42B15,2017-06-29 02:43:00,
2017-06-28 22:48:00,64.7,60.7,30.18,ESE,107,0.0,0.0,87,0.00,,,0.00,0,WeatherCatV2.42B15,2017-06-29 02:48:00,
2017-06-28 22:53:00,64.6,61.0,30.18,ESE,107,0.0,0.0,88,0.00,,,0.00,0,WeatherCatV2.42B15,2017-06-29 02:53:00,
2017-06-28 22:58:00,65.0,61.3,30.19,ESE,107,0.0,0.0,88,0.00,,,0.00,0,WeatherCatV2.42B15,2017-06-29 02:58:00,
2017-06-28 23:03:00,64.9,61.2,30.19,ESE,107,0.0,0.0,88,0.00,,,0.00,0,WeatherCatV2.42B15,2017-06-29 03:03:00,
2017-06-28 23:08:00,64.5,60.9,30.19,ESE,107,0.0,0.0,88,0.00,,,0.00,0,WeatherCatV2.42B15,2017-06-29 03:08:00,
2017-06-28 23:13:00,64.4,60.8,30.19,ESE,107,0.0,0.0,88,0.00,,,0.00,0,WeatherCatV2.42B15,2017-06-29 03:13:00,
2017-06-28 23:18:00,64.5,60.5,30.19,ESE,107,0.0,0.0,87,0.00,,,0.00,0,WeatherCatV2.42B15,2017-06-29 03:18:00,
2017-06-28 23:23:00,64.5,60.5,30.19,ESE,107,0.0,0.0,87,0.00,,,0.00,0,WeatherCatV2.42B15,2017-06-29 03:23:00,
2017-06-28 23:28:00,64.4,60.4,30.19,ESE,107,0.0,0.0,87,0.00,,,0.00,0,WeatherCatV2.42B15,2017-06-29 03:28:00,
2017-06-28 23:33:00,64.4,60.4,30.19,ESE,107,0.0,0.0,87,0.00,,,0.00,0,WeatherCatV2.42B15,2017-06-29 03:33:00,
2017-06-28 23:38:00,64.3,60.0,30.20,ESE,107,0.0,0.0,86,0.00,,,0.00,0,WeatherCatV2.42B15,2017-06-29 03:38:00,
2017-06-28 23:43:00,64.4,60.4,30.19,ESE,107,0.0,0.0,87,0.00,,,0.00,0,WeatherCatV2.42B15,2017-06-29 03:43:00,